TOP > 外国特許検索

外国特許検索

表示件数 詳細検索
特許の状態
出願国

リセット

該当件数 4748件

No. 出願番号
公報番号
出願国
発明の名称
掲載日
更新日
データ提供機関
1401 2016JP061913 WO 2016167286 世界知的所有権機関(WIPO) FLAT METAL PARTICLE, MOLDED ARTICLE HAVING FLAT METAL PARTICLE, METHOD FOR MANUFACTURING FLAT METAL PARTICLE, AND METHOD FOR MANUFACTURING METAL PLATE 2017/01/04 2019/01/30 岐阜工業高等専門学校
1402 2014JP052754 WO 2014148136 世界知的所有権機関(WIPO) COMPOUND HAVING ANTI-ALLERGIC ACTIVITY AND USE OF SAME 新技術説明会 2015/10/21 2015/11/02 岐阜薬科大学
1403 2014JP056785 WO 2014142276 世界知的所有権機関(WIPO) 4-HYDROPEROXY-TRANS-2-DECENOIC ACID DERIVATIVE AND MEDICINE CONTAINING SAME 新技術説明会 2015/10/21 2015/11/02 岐阜薬科大学
1404 2006JP317040 WO 2007/026728 世界知的所有権機関(WIPO) CERAMIC SOLID-PHASE FOAM AND PROCESS FOR PRODUCING THE SAME 新技術説明会 2007/11/16 2008/10/15 岡山大学
1405 2007JP052783 WO 2007/094435 世界知的所有権機関(WIPO) TEMPERATURE SENSOR 2008/06/06 2008/10/16 岡山大学
1406 2008JP053240 WO 2008/105386 世界知的所有権機関(WIPO) REXINOID COMPOUND HAVING ALKOXY GROUP 新技術説明会 2009/03/27 2009/03/24 岡山大学
1407 2007JP065012 WO 2008/018327 世界知的所有権機関(WIPO) DIAGNOSTIC AGENT 新技術説明会 2009/03/27 2009/03/24 岡山大学
1408 2007JP062139 WO 2007/145325 世界知的所有権機関(WIPO) TEST METHOD FOR MALT LYMPHOMA AND KIT THEREFOR 2009/03/27 2009/03/24 岡山大学
1409 2010JP002865 WO 2010/122787 世界知的所有権機関(WIPO) PERITONEUM-PROTECTING AGENT AND METHOD FOR PRODUCING PERITONEUM-PROTECTING AGENT 2010/09/28 2010/12/15 岡山大学
1410 2010JP056117 WO 2010/114143 世界知的所有権機関(WIPO) SYSTEM FOR INCREASING ACTIVITY OF SPECIFIC PROMOTER, AND VECTOR CARRYING THE SYSTEM 2010/09/28 2010/12/15 岡山大学
1411 2010JP058642 WO 2010/134601 世界知的所有権機関(WIPO) PEPTIDE INDUCING XAGE-1B-SPECIFIC IMMUNE REACTION AND UTILIZATION OF SAME 2010/09/28 2010/12/15 岡山大学
1412 2010JP059889 WO 2010/143700 世界知的所有権機関(WIPO) DIHYDROXYHEXENOIC ACID ESTER AND METHOD FOR PRODUCING SAME 新技術説明会 2010/09/28 2011/01/19 岡山大学
1413 2010JP060002 WO 2010/143734 世界知的所有権機関(WIPO) NITRO GROUP-CONTAINING ETHER COMPOUND AND METHOD FOR PRODUCING SAME 新技術説明会 2010/09/28 2011/01/19 岡山大学
1414 2010JP062759 WO 2011/013735 世界知的所有権機関(WIPO) NOVEL FLAVANONE DERIVATIVE 2010/09/28 2011/02/16 岡山大学
1415 2008JP065042 WO 2009/028424 世界知的所有権機関(WIPO) ELECTRONIC ELEMENT AND ELECTRICAL CONDUCTIVITY CONTROL METHOD 新技術説明会 2010/12/14 2010/12/15 岡山大学
1416 2008JP065045 WO 2009/028426 世界知的所有権機関(WIPO) ELECTRONIC ELEMENT AND ELECTROCONDUCTIVITY CONTROL METHOD 新技術説明会 2010/12/14 2010/12/15 岡山大学
1417 2008JP065724 WO 2009/031517 世界知的所有権機関(WIPO) SURFACE TREATING METHOD AND DEVICE THEREOF 新技術説明会 2010/12/14 2010/12/15 岡山大学
1418 2008JP063002 WO 2009034779 世界知的所有権機関(WIPO) CANCER DIAGNOSIS KIT AND CANCER DIAGNOSIS METHOD 2010/12/14 2019/04/24 岡山大学
1419 2008JP069004 WO 2009054361 世界知的所有権機関(WIPO) HAIR GROWTH PROMOTER 2010/12/14 2019/04/24 岡山大学
1420 2009JP051034 WO 2009/093675 世界知的所有権機関(WIPO) METHOD AND BACTERIUM FOR PROMOTING THE GROWTH OF RACOMITRIUM CANESCENS AND SEED PLANTS 2010/12/14 2010/12/15 岡山大学
1421 2009JP051907 WO 2009/099112 世界知的所有権機関(WIPO) NOVEL DNA FRAGMENT AND USE THEREOF 新技術説明会 2010/12/14 2010/12/27 岡山大学
1422 2009JP055208 WO 2009116546 世界知的所有権機関(WIPO) EXCITATORY CHEMICAL MEDIATOR AND METHOD FOR SCREENING THEREOF 新技術説明会 2010/12/14 2019/04/24 岡山大学
1423 2009JP055816 WO 2009/119578 世界知的所有権機関(WIPO) MICRO-DROPLET DISPENSING DEVICE 2010/12/14 2010/12/15 岡山大学
1424 2009JP056428 WO 2009/119874 世界知的所有権機関(WIPO) PHARMACEUTICAL COMPOSITION FOR TREATING OR PREVENTING CANCER WHICH INDUCES DENDRITIC CELL-LIKE DIFFERENTIATION OF MONOCYTES TO INCREASE ANTICANCER IMMUNE ACTIVITY 2010/12/14 2011/05/23 岡山大学
1425 2009JP053256 WO 2009/125626 世界知的所有権機関(WIPO) MESOTHELIOMA-SPECIFIC PROMOTER AND USE THEREOF 2010/12/14 2010/12/15 岡山大学
1426 2009JP059045 WO 2009139459 世界知的所有権機関(WIPO) METHOD FOR PREVENTION AND TREATMENT OF METABOLIC SYNDROME THROUGH THE INHIBITION OF PSGL-1 2010/12/14 2019/04/24 岡山大学
1427 2009JP058996 WO 2009/145067 世界知的所有権機関(WIPO) THERAPEUTIC AGENT FOR PAIN AND USE THEREOF 新技術説明会 2010/12/14 2010/12/15 岡山大学
1428 2009JP059982 WO 2009/148017 世界知的所有権機関(WIPO) ARTIFICIAL TERMITE EGG HAVING .BETA.-GLUCOSIDASE AS TERMITE EGG RECOGNITION PHEROMONE, AND CONTROL OF TERMITES USING THE SAME 2010/12/14 2010/12/15 岡山大学
1429 2009JP061698 WO 2010/001824 世界知的所有権機関(WIPO) NOVEL ANTISCHISTOSOMAL AGENT 2010/12/14 2010/12/15 岡山大学
1430 2009JP065264 WO 2010/026966 世界知的所有権機関(WIPO) NOVEL ANTI-HCV AGENT AND USE THEREOF 2010/12/14 2010/12/15 岡山大学
1431 2009JP067046 WO 2010/038785 世界知的所有権機関(WIPO) PHOTOSENSOR AND METHOD FOR MANUFACTURING THE PHOTOSENSOR 新技術説明会 2010/12/15 2010/12/15 岡山大学
1432 2009JP067047 WO 2010/038786 世界知的所有権機関(WIPO) MEMORY ELEMENT, METHOD FOR MANUFACTURING THE MEMORY ELEMENT, AND MEMORY DEVICE COMPRISING MEMORY ELEMENT 新技術説明会 2010/12/15 2010/12/15 岡山大学
1433 2009JP067048 WO 2010/038787 世界知的所有権機関(WIPO) PHOTOELECTRIC CONVERSION ELEMENT AND METHOD FOR MANUFACTURING THE PHOTOELECTRIC CONVERSION ELEMENT 新技術説明会 2010/12/15 2010/12/15 岡山大学
1434 2009JP067049 WO 2010/038788 世界知的所有権機関(WIPO) CURRENT CONTROL ELEMENT AND METHOD FOR MANUFACTURING THE CURRENT CONTROL ELEMENT 新技術説明会 2010/12/15 2010/12/15 岡山大学
1435 2009JP005235 WO 2010/041449 世界知的所有権機関(WIPO) ANTI-ALLERGIC AGENT COMPRISING RXR AGONIST AS ACTIVE INGREDIENT 2010/12/15 2010/12/15 岡山大学
1436 2009JP004465 WO 2010/050109 世界知的所有権機関(WIPO) KIT FOR PRODUCING DOUBLE-STRANDED RNA WITH LACTIC ACID BACTERIUM, AND USE THEREOF 2010/12/15 2010/12/27 岡山大学
1437 2009JP005718 WO 2010/050211 世界知的所有権機関(WIPO) COMPOSITION FOR LOCAL ANESTHESIA 2010/12/15 2010/12/15 岡山大学
1438 2009JP069224 WO 2010/055867 世界知的所有権機関(WIPO) METHOD FOR DETERMINING THERAPEUTIC EFFECT OF REPERFUSION THERAPY 新技術説明会 2010/12/15 2010/12/15 岡山大学
1439 2010JP051087 WO 2010/087383 世界知的所有権機関(WIPO) ION SENSOR 2010/12/15 2010/12/15 岡山大学
1440 2010JP053626 WO 2010/101240 世界知的所有権機関(WIPO) BIODEGRADABLE POROUS HOLLOW PARTICLE, AND PRODUCTION METHOD AND APPLICATION THEREOF 2010/12/15 2010/12/15 岡山大学
1441 2008JP054918 WO 2008/120570 世界知的所有権機関(WIPO) CULTURE MEDIUM FOR PRODUCTION OF PROTEIN OR PROLIFERATION OF VIRUS 2011/03/14 2011/03/22 岡山大学
1442 2010JP069104 WO 2011/058881 世界知的所有権機関(WIPO) APPARATUS FOR PRODUCING ULTRAFINE LIQUID DROPLETS 2011/03/15 2011/08/01 岡山大学
1443 2009JP065263 WO 2010/026965 世界知的所有権機関(WIPO) CELL CAPABLE OF REPLICATING NOVEL HCV REPLICON, CELL CAPABLE OF REPLICATING FULL-LENGTH HCV RNA, AND USE OF THOSE CELLS 2011/03/17 2011/03/22 岡山大学
1444 2010JP072503 WO 2011/074586 世界知的所有権機関(WIPO) NOVEL MICROORGANISM CAPABLE OF PRODUCING OXIDE 2011/04/01 2011/08/01 岡山大学
1445 2008JP068478 WO 2009/051080 世界知的所有権機関(WIPO) SOLUTION CONCENTRATION DISTRIBUTION MEASURING DEVICE 新技術説明会 2011/04/06 2011/05/25 岡山大学
1446 2008JP069683 WO 2009/057656 世界知的所有権機関(WIPO) PAIRING COMPUTATION DEVICE, PAIRING COMPUTATION METHOD, AND RECORDING MEDIUM WHERE PAIRING COMPUTATION PROGRAM IS RECORDED 新技術説明会 2011/04/06 2011/05/25 岡山大学
1447 2009JP053395 WO 2009/107650 世界知的所有権機関(WIPO) SCALAR MULTIPLICATION METHOD, RAISING METHOD, RECORDING MEDIUM WHERE SCALAR MULTIPLICATION PROGRAM IS RECORDED, AND RECORDING MEDIUM WHERE RAISING METHOD PROGRAM IS RECORDED 2011/04/06 2011/04/06 岡山大学
1448 2009JP067903 WO 2010/050369 世界知的所有権機関(WIPO) PROPHYLACTIC AGENT FOR DENTAL CARIES 2011/05/06 2011/05/25 岡山大学
1449 2009JP054473 WO 2009/154025 世界知的所有権機関(WIPO) ANTIBODY AGAINST OXIDIZED LDL/.beta.2GPI COMPLEX AND USE OF THE SAME 2011/05/06 2011/05/25 岡山大学
1450 2009JP061246 WO 2009154283 世界知的所有権機関(WIPO) ANTIBODY DIRECTED AGAINST CALCIFIED GLOBULE, AND USE THEREOF 2011/05/06 2019/04/24 岡山大学
1451 2009JP070127 WO 2010/061951 世界知的所有権機関(WIPO) SCALAR MULTIPLIER AND SCALAR MULTIPLICATION PROGRAM 2011/05/06 2011/05/25 岡山大学
1452 2010JP055402 WO 2010/110435 世界知的所有権機関(WIPO) ORGANIC-INORGANIC COMPOSITE MATERIAL AND PROCESS FOR PRODUCING SAME 2011/05/06 2011/05/25 岡山大学
1453 2010JP057534 WO 2010/123151 世界知的所有権機関(WIPO) PAIRING ARITHMETIC DEVICE, PAIRING ARITHMETIC METHOD AND RECORDING MEDIUM HAVING PAIRING ARITHMETIC PROGRAM RECORDED THEREON 2011/05/06 2011/05/25 岡山大学
1454 2010JP059102 WO 2011/001771 世界知的所有権機関(WIPO) LEAKAGE MAGNETIC FLUX FLAW INSPECTION METHOD AND DEVICE 2011/09/06 2011/09/29 岡山大学
1455 2010JP060748 WO 2011/010525 世界知的所有権機関(WIPO) CHAMBER FOR OPTICAL OBSERVATION, METHOD FOR OPTICALLY OBSERVING SAMPLE, AND METHOD FOR MANUFACTURING LOWER TRANSPARENT PLATE 2011/09/06 2011/09/29 岡山大学
1456 2010JP064257 WO 2011/024793 世界知的所有権機関(WIPO) pH OR CONCENTRATION MEASURING DEVICE AND pH OR CONCENTRATION MEASURING METHOD 2011/11/04 2011/12/02 岡山大学
1457 2010JP065173 WO 2011030724 世界知的所有権機関(WIPO) USE OF GENE INVOLVED IN ACCUMULATION OF CADMIUM IN PLANTS 2011/11/04 2019/04/24 岡山大学
1458 2010JP065426 WO 2011030793 世界知的所有権機関(WIPO) USE OF GENE INVOLVED IN TAKING-IN OF ALUMINUM INTO PLANTS 2011/11/04 2019/04/24 岡山大学
1459 2010JP066683 WO 2011/037227 世界知的所有権機関(WIPO) AGENT FOR PREVENTION OF ATHEROSCLEROSIS 2011/11/04 2011/12/02 岡山大学
1460 2009JP063603 WO 2010/013789 世界知的所有権機関(WIPO) PROTEIN PRODUCTION METHOD, FUSION PROTEIN, AND ANTISERUM 2011/12/27 2011/12/28 岡山大学
1461 2009JP065099 WO 2010/024401 世界知的所有権機関(WIPO) PAIRING COMPUTATION DEVICE, PAIRING COMPUTATION METHOD, AND PAIRING COMPUTATION PROGRAM 2011/12/27 2011/12/28 岡山大学
1462 2009JP070323 WO 2010/064686 世界知的所有権機関(WIPO) DIELECTRIC COMPOUND AND MANUFACTURING METHOD THEREOF 2011/12/27 2011/12/28 岡山大学
1463 2010JP005611 WO 2011/048745 世界知的所有権機関(WIPO) MOUTHPIECE 2011/12/27 2011/12/28 岡山大学
1464 86599609 8865669 アメリカ合衆国 DNA fragment and use thereof 新技術説明会 2012/01/06 2018/07/19 岡山大学
1465 2010JP070330 WO 2011/062147 世界知的所有権機関(WIPO) METHOD FOR INDUCING DIFFERENTIATION OF DENTAL PULP CELLS INTO ODONTOBLASTS 2012/01/12 2012/02/01 岡山大学
1466 2010JP070187 WO 2011/059054 世界知的所有権機関(WIPO) TERMITE EGG DISINFESTATION TECHNIQUE UTILIZING VOLATILE CALLING PHEROMONE AND QUEEN PHEROMONE 2012/01/12 2012/02/01 岡山大学
1467 2010JP072504 WO 2011/074587 世界知的所有権機関(WIPO) MAGNETIC CERAMIC AND PROCESS FOR PRODUCTION THEREOF 2012/03/15 2012/04/05 岡山大学
1468 2011JP050880 WO 2011/090078 世界知的所有権機関(WIPO) RESIN COMPOSITION FOR MEDICAL USE, MANUFACTURING METHOD THEREOF, AND MEDICAL KIT 新技術説明会 2012/03/27 2012/04/05 岡山大学
1469 2011JP051636 WO 2011093393 世界知的所有権機関(WIPO) METHOD FOR ASSESSMENT OF POTENTIAL FOR DEVELOPMENT OF DRAVET SYNDROME AND USE THEREOF 2012/03/27 2019/04/24 岡山大学
1470 2010JP051306 WO 2010/084999 世界知的所有権機関(WIPO) IMMUNOSUPPRESSIVE AGENTS AND PROPHYLACTIC AND THERAPEUTIC AGENTS FOR AUTOIMMUNE DISEASES 2012/03/27 2012/07/25 岡山大学
1471 2011JP077782 WO 2012/074043 世界知的所有権機関(WIPO) THERAPEUTIC AGENT FOR TRAUMATIC NEUROLOGICAL DISORDERS 2012/04/09 2012/06/27 岡山大学
1472 2011JP055947 WO 2011/115062 世界知的所有権機関(WIPO) ADJUVANT HAVING ANTI-TUMOR EFFECT 2012/05/07 2012/05/31 岡山大学
1473 2011JP053838 WO 2011/102530 世界知的所有権機関(WIPO) KIT FOR ADHERING BIOLOGICAL HARD TISSUES 2012/05/07 2012/05/31 岡山大学
1474 2011JP057238 WO 2011/118731 世界知的所有権機関(WIPO) THIOSULFONATE COMPOUND, REVERSIBLY CATIONIZING AGENT FOR PROTEINS AND/OR PEPTIDES, AND METHOD FOR SOLUBILIZATION 2012/05/07 2012/05/31 岡山大学
1475 2011JP059414 WO 2011/129442 世界知的所有権機関(WIPO) METHOD FOR DIRECTLY PRODUCING PHOSPHINE DERIVATIVE FROM PHOSPHINE OXIDE DERIVATIVE 2012/05/16 2012/05/31 岡山大学
1476 2011JP073098 WO 2012/046805 世界知的所有権機関(WIPO) RATIONAL POINT INFORMATION COMPRESSION DEVICE, RATIONAL POINT INFORMATION COMPRESSION METHOD, AND RATIONAL POINT INFORMATION COMPRESSION PROGRAM 2012/05/22 2012/05/31 岡山大学
1477 2011JP077061 WO 2012/070620 世界知的所有権機関(WIPO) METAL COMPLEX COMPOUND, HYDROGEN PRODUCTION CATALYST AND HYDROGENATION REACTION CATALYST EACH COMPRISING THE METAL COMPLEX COMPOUND, AND HYDROGEN PRODUCTION METHOD AND HYDROGENATION METHOD EACH USING THE CATALYST 新技術説明会 2012/06/13 2012/06/27 岡山大学
1478 2011JP006754 WO 2012/077313 世界知的所有権機関(WIPO) METHOD AND DEVICE FOR VERIFYING ONSET OF DEMENTIA 新技術説明会 2012/06/27 2012/06/27 岡山大学
1479 2012JP052670 WO 2012/108402 世界知的所有権機関(WIPO) CATALYST AND PROCESS FOR PRODUCTION THEREOF 新技術説明会 2012/09/05 2012/09/25 岡山大学
1480 2011JP063636 WO 2011/158847 世界知的所有権機関(WIPO) KIT FOR DETECTION OF GENE TARGETED BY MICRORNA, AND METHOD FOR DETECTION OF GENE TARGETED BY MICRORNA 2012/09/19 2013/09/17 岡山大学
1481 2011JP065845 WO 2012/011407 世界知的所有権機関(WIPO) THERAPEUTIC AGENT FOR DISEASE ACCOMPANIED BY EPILEPTIC WAVES 新技術説明会 2012/09/19 2012/09/19 岡山大学
1482 2012JP055694 WO 2012/124546 世界知的所有権機関(WIPO) GLOVE-TYPE POWER ASSIST DEVICE 2012/10/03 2012/10/03 岡山大学
1483 2011JP067531 WO 2012/017966 世界知的所有権機関(WIPO) METAL COMPLEX COMPOUND AND AMIDE PRODUCTION METHOD THAT UTILIZES SAID METAL COMPLEX COMPOUND 新技術説明会 2012/10/29 2012/10/29 岡山大学
1484 2011JP069439 WO 2012/029710 世界知的所有権機関(WIPO) NANOFIBER EXERTING EXCELLENT BIODEGRADABILITY AND BIOCOMPATIBILITY, AND METHOD FOR PRODUCING SAID NANOFIBER 2012/10/29 2012/10/29 岡山大学
1485 2011JP071669 WO 2012039469 世界知的所有権機関(WIPO) METHOD FOR SCREENING BINDING INHIBITOR OF RAGE AND AGE 2012/10/29 2019/04/24 岡山大学
1486 2011JP076533 WO 2012/067188 世界知的所有権機関(WIPO) METHOD FOR PRODUCING B-CELL CAPABLE OF PRODUCING HUMAN-TYPE ANTIBODY 2013/01/11 2013/01/11 岡山大学
1487 2012JP053633 WO 2012/111737 世界知的所有権機関(WIPO) NOVEL COMPOUND, NOVEL LIGAND, NOVEL TRANSITION METAL COMPLEXES, AND CATALYSTS CONSISTING OF NOVEL TRANSITION METAL COMPLEXES 2013/02/08 2013/02/08 岡山大学
1488 2011JP068588 WO 2012/086259 世界知的所有権機関(WIPO) HALOGENATION CATALYSTS AND PROCESS FOR PREPARING HALOGEN COMPOUNDS 新技術説明会 2013/02/25 2013/02/25 岡山大学
1489 2011JP074795 WO 2012/098746 世界知的所有権機関(WIPO) HALOGENATION CATALYST AND METHOD FOR PRODUCING HALOGEN COMPOUND 2013/02/25 2013/02/25 岡山大学
1490 2011JP076507 WO 2012/086346 世界知的所有権機関(WIPO) DIAGNOSTIC METHOD FOR CHRONIC INFLAMMATORY DISEASES USING ANTIBODY AGAINST INHIBITORY CO-STIMULATORY MOLECULES AS MARKER 2013/02/25 2013/02/25 岡山大学
1491 2011JP077075 WO 2012127739 世界知的所有権機関(WIPO) NOVEL CARRIER MOLECULE AND METHOD BOTH FOR DELIVERING RNA INTO CYTOPLASM USING NEAR-INFRARED LIGHT 2013/04/26 2019/04/25 岡山大学
1492 2012JP056452 WO 2012/124703 世界知的所有権機関(WIPO) NOVEL POROUS AMORPHOUS SILICA AND PRODUCTION METHOD THEREFOR 2013/04/26 2013/04/26 岡山大学
1493 2012JP056535 WO 2012/124727 世界知的所有権機関(WIPO) MACHINABLE ZEOLITE BULK BODY, METHOD FOR PRODUCING SAME AND HYDROTHERMAL SYNTHESIS REACTION SOLUTION THEREFOR, AND APPLICATION THEREFOR 新技術説明会 2013/04/26 2013/04/26 岡山大学
1494 2012JP076654 WO 2013061818 世界知的所有権機関(WIPO) NOVEL PEPTIDE COMPLEX AND HYBRID COMPLEX THEREOF, AND USE OF SAID HYBRID COMPLEX 2013/05/15 2019/04/25 岡山大学
1495 2012JP079813 WO 2013/073676 世界知的所有権機関(WIPO) PEST CONTROL AGENT 2013/06/05 2013/06/05 岡山大学
1496 2012JP079467 WO 2013/077228 世界知的所有権機関(WIPO) IMPDH INHIBITOR HAVING MICRORNA AS ACTIVE COMPONENT 2013/06/12 2013/06/12 岡山大学
1497 2012JP082687 WO 2013/094566 世界知的所有権機関(WIPO) TERMITE EXTERMINATION METHOD AND TERMITE EXTERMINATION DEVICE 2013/07/16 2013/07/16 岡山大学
1498 2012JP071845 WO 2013031833 世界知的所有権機関(WIPO) SKIN INTRODUCTION SYSTEM AND LIGHTENING AGENT COMBINING CELL INTRODUCTION PEPTIDE AND SKIN INTRODUCTION ACCELERATOR 2013/07/16 2019/04/25 岡山大学
1499 2012JP073957 WO 2013/042695 世界知的所有権機関(WIPO) METAL PORPHYRIN COMPLEX, METHOD FOR PRODUCING SAME, CARBON DIOXIDE IMMOBILIZATION CATALYST COMPRISING SAME, AND METHOD FOR PRODUCING CYCLIC CARBONIC ACID ESTER. 新技術説明会 2013/07/16 2013/07/16 岡山大学
1500 2012JP074378 WO 2013/047428 世界知的所有権機関(WIPO) METHOD FOR PRODUCING MATURE MAST CELL 新技術説明会 2013/07/16 2013/07/16 岡山大学

PAGE TOP